Time;durP1;ratioP1;P1;durP2;ratioP2;P2;SDS_P1;SDS_P2;PMS_P1;PMS_P2;Temp;Humidity;BMP_temperature;BMP_pressure;BME280_temperature;BME280_humidity;BME280_pressure;Samples;Min_cycle;Max_cycle;Signal;HPM_P1;HPM_P2
2021/12/17 00:00:46;;;;;;;15.13;9.43;;;5.10;99.90;;;;;;5091563;28;20208;-60
2021/12/17 00:03:21;;;;;;;13.47;8.17;;;5.00;99.90;;;;;;5092208;28;20234;-62
2021/12/17 00:06:13;;;;;;;12.80;7.07;;;5.00;99.90;;;;;;5091638;28;20302;-60
2021/12/17 00:08:42;;;;;;;13.00;6.80;;;5.00;99.90;;;;;;5092057;28;20207;-61
2021/12/17 00:11:10;;;;;;;10.20;6.00;;;4.90;99.90;;;;;;5092187;28;20210;-60
2021/12/17 00:13:38;;;;;;;11.07;6.10;;;4.80;99.90;;;;;;5091895;28;20208;-61
2021/12/17 00:16:14;;;;;;;8.70;5.60;;;4.80;99.90;;;;;;5091851;28;20295;-61
2021/12/17 00:18:54;;;;;;;10.77;6.10;;;4.80;99.90;;;;;;5091713;28;20192;-62
2021/12/17 00:48:57;;;;;;;9.33;5.97;;;4.90;99.90;;;;;;5091276;28;20319;-60
2021/12/17 00:54:21;;;;;;;10.93;6.27;;;5.00;99.90;;;;;;5090693;28;20199;-60
2021/12/17 00:56:48;;;;;;;12.70;7.03;;;4.90;99.90;;;;;;5090505;28;20183;-61
2021/12/17 00:59:15;;;;;;;18.10;7.90;;;4.90;99.90;;;;;;5091116;28;20200;-61
2021/12/17 01:01:42;;;;;;;8.77;5.43;;;4.90;99.90;;;;;;5091334;28;20208;-62
2021/12/17 01:04:11;;;;;;;9.47;5.17;;;4.80;99.90;;;;;;5091716;28;20227;-60
2021/12/17 01:06:38;;;;;;;9.27;4.90;;;4.80;99.90;;;;;;5091541;28;20223;-61
2021/12/17 01:09:06;;;;;;;9.33;4.70;;;4.70;99.90;;;;;;5091725;28;20204;-60
2021/12/17 01:11:34;;;;;;;8.53;4.50;;;4.80;99.90;;;;;;5091795;28;20215;-61
2021/12/17 01:14:01;;;;;;;7.37;4.00;;;4.70;99.90;;;;;;5091400;28;20210;-60
2021/12/17 01:16:28;;;;;;;7.23;4.30;;;4.70;99.90;;;;;;5091109;28;20196;-64
2021/12/17 01:19:04;;;;;;;5.33;3.70;;;4.70;99.90;;;;;;5091468;28;20206;-61
2021/12/17 01:21:42;;;;;;;6.77;4.33;;;4.60;99.90;;;;;;5091347;28;20192;-61
2021/12/17 01:24:28;;;;;;;7.07;3.83;;;4.50;99.90;;;;;;5091597;28;20283;-60
2021/12/17 01:35:28;;;;;;;4.90;3.00;;;4.50;99.90;;;;;;5095075;28;20268;-60
2021/12/17 01:41:40;;;;;;;3.77;2.87;;;4.60;99.90;;;;;;5094720;28;20196;-59
2021/12/17 01:44:08;;;;;;;5.13;3.13;;;4.60;99.90;;;;;;5094660;28;20231;-60
2021/12/17 01:46:37;;;;;;;5.27;3.10;;;4.60;99.90;;;;;;5094539;28;20316;-61
2021/12/17 01:49:23;;;;;;;5.07;3.53;;;4.60;99.90;;;;;;5094898;28;20204;-59
2021/12/17 02:00:14;;;;;;;4.60;3.10;;;4.50;99.90;;;;;;5094283;28;20437;-60
2021/12/17 02:02:46;;;;;;;6.90;3.20;;;4.60;99.90;;;;;;5094244;28;20295;-61
2021/12/17 02:05:14;;;;;;;4.23;3.30;;;4.60;99.90;;;;;;5094389;28;20254;-61
2021/12/17 02:07:43;;;;;;;7.40;3.20;;;4.60;99.90;;;;;;5094598;28;20196;-59
2021/12/17 02:10:54;;;;;;;5.10;3.30;;;4.60;99.90;;;;;;5094316;28;20562;-61
2021/12/17 02:30:04;;;;;;;5.87;3.60;;;4.60;99.90;;;;;;5094051;28;20231;-60
2021/12/17 02:32:34;;;;;;;8.13;4.20;;;4.60;99.90;;;;;;5093632;28;20196;-61
2021/12/17 02:35:19;;;;;;;10.87;4.13;;;4.50;99.90;;;;;;5093640;28;20648;-60
2021/12/17 02:37:49;;;;;;;5.70;3.30;;;4.50;99.90;;;;;;5093891;28;20196;-60
2021/12/17 02:42:26;;;;;;;5.57;3.20;;;4.40;99.90;;;;;;5093408;28;20215;-59
2021/12/17 02:45:51;;;;;;;4.40;3.13;;;4.40;99.90;;;;;;5093389;28;20301;-60
2021/12/17 02:48:20;;;;;;;7.00;3.17;;;4.40;99.90;;;;;;5093246;28;20226;-61
2021/12/17 02:50:49;;;;;;;9.50;4.93;;;4.40;99.90;;;;;;5093382;28;20209;-62
2021/12/17 02:53:19;;;;;;;7.60;4.13;;;4.40;99.90;;;;;;5092283;28;20211;-61
2021/12/17 02:55:50;;;;;;;5.80;3.37;;;4.40;99.90;;;;;;5093515;28;20207;-60
2021/12/17 02:58:17;;;;;;;5.43;3.40;;;4.40;99.90;;;;;;5093267;28;20548;-60
2021/12/17 03:00:45;;;;;;;4.30;2.80;;;4.40;99.90;;;;;;5092773;28;20210;-61
2021/12/17 03:03:13;;;;;;;5.73;2.87;;;4.40;99.90;;;;;;5092937;28;20204;-59
2021/12/17 03:05:42;;;;;;;6.77;2.77;;;4.40;99.90;;;;;;5092895;28;20234;-61
2021/12/17 03:08:13;;;;;;;5.90;2.80;;;4.40;99.90;;;;;;5092753;28;20206;-59
2021/12/17 03:10:42;;;;;;;7.97;4.33;;;4.40;99.90;;;;;;5092803;28;20192;-59
2021/12/17 03:13:10;;;;;;;5.70;3.23;;;4.40;99.90;;;;;;5092551;28;20204;-61
2021/12/17 03:15:43;;;;;;;7.13;3.20;;;4.40;99.90;;;;;;5093081;28;20613;-62
2021/12/17 03:23:45;;;;;;;5.27;3.30;;;4.30;99.90;;;;;;5092597;28;20761;-60
2021/12/17 03:26:16;;;;;;;4.57;3.20;;;4.30;99.90;;;;;;5092877;28;20565;-61
2021/12/17 03:28:45;;;;;;;9.50;3.20;;;4.30;99.90;;;;;;5092580;28;20200;-60
2021/12/17 03:31:13;;;;;;;6.37;3.33;;;4.30;99.90;;;;;;5091797;28;20270;-60
2021/12/17 03:33:43;;;;;;;8.07;3.17;;;4.30;99.90;;;;;;5092167;28;20197;-60
2021/12/17 03:36:11;;;;;;;7.50;3.50;;;4.30;99.90;;;;;;5092652;28;20199;-60
2021/12/17 03:38:39;;;;;;;6.23;3.47;;;4.30;99.90;;;;;;5092809;28;20216;-60
2021/12/17 03:41:16;;;;;;;6.27;3.40;;;4.40;99.90;;;;;;5092404;28;20734;-61
2021/12/17 03:43:44;;;;;;;7.70;3.10;;;4.30;99.90;;;;;;5093100;28;20191;-60
2021/12/17 03:46:11;;;;;;;8.70;3.20;;;4.20;99.90;;;;;;5092310;28;20223;-61
2021/12/17 03:48:40;;;;;;;6.97;2.90;;;4.30;99.90;;;;;;5092652;28;20770;-60
2021/12/17 03:51:11;;;;;;;5.83;3.03;;;4.20;99.90;;;;;;5091994;28;20253;-61
2021/12/17 03:53:39;;;;;;;7.83;3.13;;;4.30;99.90;;;;;;5091938;28;20203;-59
2021/12/17 03:56:06;;;;;;;7.07;3.20;;;4.30;99.90;;;;;;5092239;28;20865;-60
2021/12/17 03:58:33;;;;;;;5.93;2.87;;;4.30;99.90;;;;;;5092090;28;20613;-60
2021/12/17 04:01:01;;;;;;;8.37;3.30;;;4.30;99.90;;;;;;5091761;28;20219;-61
2021/12/17 04:03:28;;;;;;;11.80;4.07;;;4.30;99.90;;;;;;5091992;28;20207;-60
2021/12/17 04:05:55;;;;;;;10.13;3.80;;;4.30;99.90;;;;;;5092222;28;20507;-60
2021/12/17 04:08:22;;;;;;;5.10;2.90;;;4.30;99.90;;;;;;5091822;28;20206;-61
2021/12/17 04:10:51;;;;;;;5.57;2.60;;;4.30;99.90;;;;;;5091880;28;20207;-61
2021/12/17 04:13:30;;;;;;;5.83;3.30;;;4.30;99.90;;;;;;5092070;28;20636;-60
2021/12/17 04:16:00;;;;;;;4.70;2.83;;;4.20;99.90;;;;;;5091245;28;20571;-61
2021/12/17 04:18:29;;;;;;;5.77;2.97;;;4.20;99.90;;;;;;5091623;28;20274;-62
2021/12/17 04:20:56;;;;;;;5.00;2.60;;;4.20;99.90;;;;;;5091118;28;20556;-61
2021/12/17 04:23:23;;;;;;;6.53;3.10;;;4.20;99.90;;;;;;5090062;28;20251;-60
2021/12/17 04:25:50;;;;;;;4.27;2.53;;;4.20;99.90;;;;;;5089881;28;20206;-61
2021/12/17 04:28:18;;;;;;;5.10;3.00;;;4.20;99.90;;;;;;5090234;28;20212;-60
2021/12/17 04:30:45;;;;;;;7.27;2.77;;;4.20;99.90;;;;;;5089820;28;20216;-62
2021/12/17 04:33:13;;;;;;;7.60;3.03;;;4.20;99.90;;;;;;5090634;28;20206;-61
2021/12/17 04:35:41;;;;;;;6.50;3.07;;;4.10;99.90;;;;;;5090580;28;20195;-60
2021/12/17 04:38:10;;;;;;;9.43;3.30;;;4.10;99.90;;;;;;5090962;28;20194;-60
2021/12/17 04:40:39;;;;;;;5.17;2.87;;;4.10;99.90;;;;;;5091381;28;20206;-60
2021/12/17 04:43:16;;;;;;;6.07;3.30;;;4.10;99.90;;;;;;5090184;28;20261;-60
2021/12/17 04:45:48;;;;;;;7.93;3.30;;;4.10;99.90;;;;;;5091333;28;20264;-61
2021/12/17 04:59:13;;;;;;;5.93;3.00;;;4.10;99.90;;;;;;5091475;28;20686;-62
2021/12/17 05:01:40;;;;;;;6.63;2.80;;;4.00;99.90;;;;;;5091763;28;20683;-61
2021/12/17 05:04:07;;;;;;;8.57;3.10;;;4.00;99.90;;;;;;5091450;28;20207;-60
2021/12/17 05:06:35;;;;;;;5.17;2.80;;;4.10;99.90;;;;;;5094528;28;20230;-61
2021/12/17 05:09:08;;;;;;;6.03;3.10;;;4.10;99.90;;;;;;5094754;28;20199;-60
2021/12/17 05:19:59;;;;;;;8.07;2.90;;;4.00;99.90;;;;;;5095062;28;20543;-59
2021/12/17 05:22:29;;;;;;;6.33;3.13;;;4.10;99.90;;;;;;5095120;28;20743;-61
2021/12/17 05:24:55;;;;;;;7.10;3.00;;;4.00;99.90;;;;;;5094994;28;20310;-60
2021/12/17 05:27:22;;;;;;;11.10;3.63;;;4.00;99.90;;;;;;5095021;28;20230;-62
2021/12/17 05:29:49;;;;;;;10.20;5.40;;;4.00;99.90;;;;;;5095089;28;20208;-60
2021/12/17 05:32:16;;;;;;;7.00;4.30;;;4.00;99.90;;;;;;5095229;28;20595;-61
2021/12/17 05:34:43;;;;;;;5.33;3.03;;;4.00;99.90;;;;;;5094912;28;20204;-60
2021/12/17 05:37:10;;;;;;;8.37;3.20;;;4.00;99.90;;;;;;5095185;28;20557;-60
2021/12/17 05:39:38;;;;;;;7.70;3.30;;;4.10;99.90;;;;;;5094968;28;20534;-60
2021/12/17 05:42:05;;;;;;;10.33;3.03;;;4.10;99.90;;;;;;5095001;28;20214;-61
2021/12/17 05:44:32;;;;;;;6.63;2.90;;;4.00;99.90;;;;;;5094796;28;20222;-61
2021/12/17 05:46:59;;;;;;;6.53;2.50;;;4.00;99.90;;;;;;5094771;28;20739;-60
2021/12/17 05:49:27;;;;;;;7.60;3.17;;;4.00;99.90;;;;;;5094801;28;20245;-62
2021/12/17 05:51:55;;;;;;;9.40;4.43;;;4.00;99.90;;;;;;5094664;28;20204;-60
2021/12/17 05:54:22;;;;;;;9.03;3.70;;;4.00;99.90;;;;;;5094454;28;20208;-61
2021/12/17 05:56:51;;;;;;;9.03;3.03;;;4.00;99.90;;;;;;5094389;28;20196;-60
2021/12/17 05:59:18;;;;;;;8.63;3.10;;;4.00;99.90;;;;;;5094588;28;20204;-61
2021/12/17 06:01:45;;;;;;;5.17;2.90;;;4.00;99.90;;;;;;5094297;28;20204;-61
2021/12/17 06:04:11;;;;;;;5.90;2.90;;;4.00;99.90;;;;;;5094488;28;20666;-61
2021/12/17 06:06:41;;;;;;;10.70;3.00;;;4.10;99.90;;;;;;5094158;28;20664;-61
2021/12/17 06:09:09;;;;;;;12.67;3.10;;;4.10;99.90;;;;;;5093901;28;20208;-60
2021/12/17 06:11:37;;;;;;;8.23;2.97;;;4.10;99.90;;;;;;5094071;28;20743;-60
2021/12/17 06:14:05;;;;;;;8.23;2.83;;;4.10;99.90;;;;;;5094213;28;20204;-61
2021/12/17 06:16:33;;;;;;;6.13;2.80;;;4.10;99.90;;;;;;5093730;28;20215;-61
2021/12/17 06:19:01;;;;;;;7.50;3.10;;;4.10;99.90;;;;;;5093878;28;20206;-61
2021/12/17 06:21:28;;;;;;;9.43;3.40;;;4.10;99.90;;;;;;5093678;28;20215;-61
2021/12/17 06:23:54;;;;;;;6.50;2.90;;;4.10;99.90;;;;;;5093900;28;20200;-61
2021/12/17 06:26:21;;;;;;;8.43;4.20;;;4.10;99.90;;;;;;5093864;28;20584;-61
2021/12/17 06:28:50;;;;;;;10.20;4.10;;;4.10;99.90;;;;;;5093493;28;20228;-60
2021/12/17 06:31:19;;;;;;;8.10;4.03;;;4.10;99.90;;;;;;5093971;28;20200;-60
2021/12/17 06:33:45;;;;;;;11.30;4.23;;;4.10;99.90;;;;;;5093844;28;20204;-59
2021/12/17 06:36:12;;;;;;;6.87;3.60;;;4.00;99.90;;;;;;5093808;28;20547;-62
2021/12/17 06:38:39;;;;;;;6.10;3.03;;;4.00;99.90;;;;;;5093734;28;20200;-62
2021/12/17 06:41:06;;;;;;;8.43;3.23;;;4.00;99.90;;;;;;5093894;28;20204;-60
2021/12/17 06:43:38;;;;;;;6.67;2.93;;;4.00;99.90;;;;;;5093440;28;20202;-61
2021/12/17 06:46:17;;;;;;;6.17;2.90;;;4.00;99.90;;;;;;5093404;28;20288;-61
2021/12/17 06:48:47;;;;;;;5.50;2.90;;;4.00;99.90;;;;;;5093312;28;20686;-60
2021/12/17 06:59:43;;;;;;;5.90;2.93;;;4.00;99.90;;;;;;5089143;28;20541;-60
2021/12/17 07:10:36;;;;;;;5.17;2.60;;;4.00;99.90;;;;;;5081460;28;20200;-62
2021/12/17 07:21:31;;;;;;;6.20;2.60;;;4.00;99.90;;;;;;5089038;28;20172;-60
2021/12/17 07:32:42;;;;;;;5.67;2.90;;;4.10;99.90;;;;;;5088659;28;20637;-60
2021/12/17 07:35:41;;;;;;;3.67;2.60;;;4.00;99.90;;;;;;5088493;28;20184;-61
2021/12/17 07:40:53;;;;;;;2.83;2.37;;;4.00;99.90;;;;;;5088430;28;20318;-61
2021/12/17 07:43:30;;;;;;;7.77;2.87;;;4.00;99.90;;;;;;5088425;28;20645;-61
2021/12/17 07:45:58;;;;;;;3.37;2.30;;;3.90;99.90;;;;;;5068360;28;20196;-61
2021/12/17 07:48:26;;;;;;;4.10;2.60;;;3.90;99.90;;;;;;5068009;28;20681;-63
2021/12/17 07:50:53;;;;;;;5.67;2.57;;;3.90;99.90;;;;;;5067961;28;20209;-61
2021/12/17 07:53:20;;;;;;;4.77;2.60;;;3.90;99.90;;;;;;5080743;28;20287;-62
2021/12/17 07:55:47;;;;;;;4.60;2.50;;;3.90;99.90;;;;;;5087903;28;20227;-62
2021/12/17 07:58:14;;;;;;;7.13;2.93;;;3.90;99.90;;;;;;5087249;28;20718;-60
2021/12/17 08:00:41;;;;;;;3.87;2.57;;;3.90;99.90;;;;;;5087050;28;20202;-62
2021/12/17 08:03:08;;;;;;;6.87;2.73;;;3.90;99.90;;;;;;5088090;28;20653;-61
2021/12/17 08:05:36;;;;;;;5.07;2.80;;;3.90;99.90;;;;;;5087646;28;20208;-61
2021/12/17 08:08:03;;;;;;;5.23;2.97;;;3.90;99.90;;;;;;5087848;28;20207;-60
2021/12/17 08:10:31;;;;;;;4.83;3.00;;;3.90;99.90;;;;;;5076636;28;20287;-61
2021/12/17 08:12:58;;;;;;;5.63;2.80;;;3.90;99.90;;;;;;5074298;28;20209;-61
2021/12/17 08:15:31;;;;;;;8.47;3.17;;;3.90;99.90;;;;;;5074104;28;20216;-60
2021/12/17 08:26:19;;;;;;;4.03;2.63;;;3.90;99.90;;;;;;5047550;28;20220;-64
2021/12/17 08:29:22;;;;;;;4.20;2.70;;;3.90;99.90;;;;;;5073298;28;20189;-66
2021/12/17 08:31:43;;;;;;;5.23;2.70;;;3.90;99.90;;;;;;5073742;28;20208;-65
2021/12/17 08:34:10;;;;;;;6.27;3.20;;;3.90;99.90;;;;;;5074019;28;20575;-65
2021/12/17 08:36:38;;;;;;;6.33;3.60;;;3.90;99.90;;;;;;5073899;28;20221;-65
2021/12/17 08:39:05;;;;;;;7.30;3.77;;;3.90;99.90;;;;;;5073283;28;20221;-68
2021/12/17 08:41:32;;;;;;;6.47;3.50;;;3.90;99.90;;;;;;5073843;28;20231;-66
2021/12/17 08:43:59;;;;;;;6.73;3.33;;;3.90;99.90;;;;;;5073620;28;20201;-65
2021/12/17 08:46:25;;;;;;;7.70;3.30;;;3.90;99.90;;;;;;5073445;28;20211;-66
2021/12/17 08:48:53;;;;;;;5.23;3.60;;;3.90;99.90;;;;;;5073689;28;20201;-65
2021/12/17 08:51:19;;;;;;;8.53;3.27;;;4.00;99.90;;;;;;5073415;28;20201;-66
2021/12/17 08:53:48;;;;;;;7.50;3.30;;;4.00;99.90;;;;;;5073736;28;20211;-65
2021/12/17 08:56:19;;;;;;;5.17;2.70;;;4.00;99.90;;;;;;5073476;28;20282;-62
2021/12/17 08:58:46;;;;;;;6.87;3.43;;;4.10;99.90;;;;;;5073382;28;20596;-61
2021/12/17 09:01:13;;;;;;;6.27;3.07;;;4.10;99.90;;;;;;5073225;28;20204;-62
2021/12/17 09:03:40;;;;;;;5.47;3.57;;;4.20;99.90;;;;;;5073162;28;20364;-61
2021/12/17 09:06:06;;;;;;;6.93;3.17;;;4.10;99.90;;;;;;5073427;28;20657;-61
2021/12/17 09:08:33;;;;;;;7.30;3.30;;;4.10;99.90;;;;;;5073306;28;20574;-62
2021/12/17 09:11:02;;;;;;;8.10;4.37;;;4.10;99.90;;;;;;5072786;28;20212;-61
2021/12/17 09:13:29;;;;;;;7.03;3.20;;;4.10;99.90;;;;;;5071251;28;20633;-60
2021/12/17 09:15:56;;;;;;;5.40;3.10;;;4.10;99.90;;;;;;5072282;28;20208;-60
2021/12/17 09:18:23;;;;;;;8.87;3.60;;;4.20;99.90;;;;;;5066386;28;20221;-60
2021/12/17 09:20:50;;;;;;;6.43;3.00;;;4.20;99.90;;;;;;5070948;28;20749;-61
2021/12/17 09:23:18;;;;;;;4.93;2.90;;;4.20;99.90;;;;;;5071810;28;20830;-61
2021/12/17 09:25:44;;;;;;;7.60;3.33;;;4.20;99.90;;;;;;5069701;28;20199;-60
2021/12/17 09:28:12;;;;;;;5.43;3.33;;;4.10;99.90;;;;;;5071828;28;20619;-61
2021/12/17 09:30:39;;;;;;;8.37;3.40;;;4.20;99.90;;;;;;5068130;28;20209;-62
2021/12/17 09:33:06;;;;;;;5.27;3.00;;;4.10;99.90;;;;;;5070785;28;20205;-60
2021/12/17 09:35:33;;;;;;;6.80;3.30;;;4.10;99.90;;;;;;5070432;28;20203;-61
2021/12/17 09:38:00;;;;;;;6.60;3.00;;;4.10;99.90;;;;;;5070343;28;20653;-62
2021/12/17 09:40:27;;;;;;;6.03;2.93;;;4.20;99.90;;;;;;5068974;28;20237;-62
2021/12/17 09:42:54;;;;;;;7.23;2.97;;;4.20;99.90;;;;;;5068776;28;20638;-61
2021/12/17 09:45:23;;;;;;;5.87;3.00;;;4.30;99.90;;;;;;5071452;28;20570;-60
2021/12/17 09:47:49;;;;;;;6.80;3.20;;;4.20;99.90;;;;;;5071792;28;20232;-61
2021/12/17 09:50:19;;;;;;;6.33;3.17;;;4.30;99.90;;;;;;5071856;28;20207;-62
2021/12/17 09:52:46;;;;;;;5.97;3.30;;;4.30;99.90;;;;;;5069466;28;20539;-61
2021/12/17 09:55:13;;;;;;;6.23;2.90;;;4.30;99.90;;;;;;5064629;28;20279;-61
2021/12/17 09:57:40;;;;;;;8.60;2.73;;;4.30;99.90;;;;;;5069862;28;20303;-62
2021/12/17 10:00:11;;;;;;;6.53;2.97;;;4.30;99.90;;;;;;5070317;28;20225;-62
2021/12/17 10:02:43;;;;;;;7.53;3.13;;;4.40;99.90;;;;;;5071280;28;20680;-65
2021/12/17 10:05:13;;;;;;;5.97;2.70;;;4.40;99.90;;;;;;5069133;28;20304;-61
2021/12/17 10:07:42;;;;;;;6.27;2.70;;;4.40;99.90;;;;;;5071688;28;20201;-62
2021/12/17 10:10:09;;;;;;;5.33;2.80;;;4.40;99.90;;;;;;5069237;28;20197;-63
2021/12/17 10:12:38;;;;;;;3.33;2.40;;;4.50;99.90;;;;;;5071545;28;20675;-61
2021/12/17 10:15:09;;;;;;;5.20;2.80;;;4.50;99.90;;;;;;5071015;28;20247;-63
2021/12/17 10:17:37;;;;;;;6.70;2.73;;;4.50;99.90;;;;;;5070809;28;20196;-61
2021/12/17 10:20:07;;;;;;;6.17;2.40;;;4.60;99.90;;;;;;5071110;28;20229;-60
2021/12/17 10:22:34;;;;;;;4.47;2.20;;;4.60;99.90;;;;;;5071922;28;20209;-62
2021/12/17 10:25:05;;;;;;;6.37;2.60;;;4.60;99.90;;;;;;5071342;28;20567;-62
2021/12/17 10:27:35;;;;;;;4.97;2.67;;;4.60;99.90;;;;;;5070778;28;20189;-59
2021/12/17 10:30:11;;;;;;;6.40;2.30;;;4.50;99.90;;;;;;5071260;28;20185;-62
2021/12/17 10:32:40;;;;;;;6.93;2.60;;;4.60;99.90;;;;;;5071181;28;20188;-60
2021/12/17 10:35:11;;;;;;;5.10;2.03;;;4.50;99.90;;;;;;5070726;28;20235;-62
2021/12/17 10:37:40;;;;;;;5.93;2.30;;;4.50;99.90;;;;;;5071194;28;20197;-60
2021/12/17 10:40:23;;;;;;;5.97;2.50;;;4.50;99.90;;;;;;5071146;28;20225;-61
2021/12/17 10:43:00;;;;;;;5.13;2.23;;;4.50;99.90;;;;;;5071402;28;20751;-61
2021/12/17 10:45:29;;;;;;;7.27;2.47;;;4.50;99.90;;;;;;5071080;28;20589;-60
2021/12/17 10:48:21;;;;;;;4.80;2.47;;;4.40;99.90;;;;;;5071149;28;20203;-60
2021/12/17 10:50:49;;;;;;;6.30;2.67;;;4.40;99.90;;;;;;5071381;28;20562;-61
2021/12/17 10:53:16;;;;;;;5.27;2.43;;;4.30;99.90;;;;;;5069689;28;20201;-61
2021/12/17 10:55:46;;;;;;;5.03;2.50;;;4.40;99.90;;;;;;5069063;28;20200;-62
2021/12/17 10:58:13;;;;;;;5.23;2.30;;;4.40;99.90;;;;;;5070254;28;20224;-63
2021/12/17 11:00:47;;;;;;;5.37;2.37;;;4.40;99.90;;;;;;5070215;28;20220;-61
2021/12/17 11:03:14;;;;;;;4.23;2.00;;;4.40;99.90;;;;;;5071407;28;20652;-61
2021/12/17 11:05:44;;;;;;;3.97;2.30;;;4.40;99.90;;;;;;5069861;28;20649;-60
2021/12/17 11:08:30;;;;;;;4.97;2.17;;;4.40;99.90;;;;;;5066913;28;20213;-63
2021/12/17 11:11:05;;;;;;;3.67;2.10;;;4.50;99.90;;;;;;5070814;28;20239;-61
2021/12/17 11:13:32;;;;;;;4.17;2.20;;;4.50;99.90;;;;;;5069514;28;20303;-61
2021/12/17 11:16:00;;;;;;;3.83;2.07;;;4.50;99.90;;;;;;5070660;28;20209;-62
2021/12/17 11:18:28;;;;;;;2.90;2.00;;;4.60;99.90;;;;;;5069793;28;20228;-61
2021/12/17 11:20:56;;;;;;;7.70;1.90;;;4.60;99.90;;;;;;5068832;28;20211;-60
2021/12/17 11:23:27;;;;;;;5.87;2.70;;;4.50;99.90;;;;;;5069342;28;20258;-62
2021/12/17 11:25:54;;;;;;;5.33;2.30;;;4.50;99.90;;;;;;5069099;28;20189;-63
2021/12/17 11:28:23;;;;;;;3.37;2.00;;;4.50;99.90;;;;;;5069408;28;20297;-61
2021/12/17 11:30:52;;;;;;;3.40;2.13;;;4.40;99.90;;;;;;5069363;28;20212;-63
2021/12/17 11:33:18;;;;;;;4.87;2.47;;;4.40;99.90;;;;;;5068981;28;20205;-63
2021/12/17 11:35:48;;;;;;;4.60;2.07;;;4.40;99.90;;;;;;5070504;28;20212;-61
2021/12/17 11:38:19;;;;;;;3.03;2.10;;;4.40;99.90;;;;;;5070943;28;20204;-62
2021/12/17 11:40:51;;;;;;;4.13;2.20;;;4.40;99.90;;;;;;5071328;28;20304;-62
2021/12/17 11:43:49;;;;;;;5.77;2.10;;;4.40;99.90;;;;;;5071239;28;20216;-63
2021/12/17 11:46:17;;;;;;;5.43;3.50;;;4.40;99.90;;;;;;5074229;28;20226;-62
2021/12/17 11:48:52;;;;;;;5.53;2.20;;;4.40;99.90;;;;;;5074714;28;20223;-62
2021/12/17 11:51:23;;;;;;;4.90;1.90;;;4.50;99.90;;;;;;5075054;28;20605;-61
2021/12/17 11:54:05;;;;;;;3.77;2.47;;;4.50;99.90;;;;;;5074660;28;20672;-63
2021/12/17 11:56:46;;;;;;;4.27;2.10;;;4.50;99.90;;;;;;5074959;28;20193;-62
2021/12/17 11:59:33;;;;;;;7.00;2.47;;;4.50;99.90;;;;;;5074458;28;20731;-61
2021/12/17 12:02:06;;;;;;;4.60;2.30;;;4.50;99.90;;;;;;5074666;28;20648;-61
2021/12/17 12:04:45;;;;;;;6.93;2.73;;;4.50;99.90;;;;;;5074828;28;20228;-61
2021/12/17 12:07:14;;;;;;;3.40;2.23;;;4.50;99.90;;;;;;5074560;28;20306;-61
2021/12/17 12:09:55;;;;;;;5.10;2.10;;;4.50;99.90;;;;;;5074642;28;20205;-62
2021/12/17 12:12:28;;;;;;;3.10;1.90;;;4.50;99.90;;;;;;5074742;28;20200;-61
2021/12/17 12:15:16;;;;;;;3.90;2.13;;;4.40;99.90;;;;;;5074343;28;20204;-61
2021/12/17 12:18:09;;;;;;;4.93;1.97;;;4.50;99.90;;;;;;5073933;28;20229;-60
2021/12/17 12:20:58;;;;;;;3.30;2.17;;;4.40;99.90;;;;;;5074436;28;20205;-61
2021/12/17 12:23:37;;;;;;;4.13;2.23;;;4.50;99.90;;;;;;5074603;28;20238;-62
2021/12/17 12:26:20;;;;;;;4.43;2.27;;;4.40;99.90;;;;;;5074141;28;20189;-59
2021/12/17 12:29:03;;;;;;;2.37;1.80;;;4.40;99.90;;;;;;5074175;28;20197;-61
2021/12/17 12:31:56;;;;;;;5.23;2.50;;;4.40;99.90;;;;;;5074300;28;20223;-62
2021/12/17 12:34:30;;;;;;;5.40;2.67;;;4.30;99.90;;;;;;5074183;28;20548;-60
2021/12/17 12:36:59;;;;;;;3.70;2.30;;;4.40;99.90;;;;;;5073621;28;20192;-62
2021/12/17 12:39:29;;;;;;;4.50;2.57;;;4.40;99.90;;;;;;5074210;28;20229;-61
2021/12/17 12:42:06;;;;;;;5.50;2.40;;;4.30;99.90;;;;;;5073675;28;20287;-65
2021/12/17 12:45:10;;;;;;;4.67;2.60;;;4.40;99.90;;;;;;5074177;28;20185;-62
2021/12/17 12:47:47;;;;;;;4.23;2.33;;;4.40;99.90;;;;;;5031118;28;20205;-61
2021/12/17 12:50:16;;;;;;;5.83;2.83;;;4.40;99.90;;;;;;5068416;28;20266;-60
2021/12/17 12:52:45;;;;;;;4.60;2.53;;;4.40;99.90;;;;;;5073797;28;20204;-62
2021/12/17 12:55:21;;;;;;;5.30;2.50;;;4.40;99.90;;;;;;5073281;28;20231;-62
2021/12/17 12:57:50;;;;;;;4.73;2.33;;;4.40;99.90;;;;;;5073300;28;20228;-63
2021/12/17 13:00:22;;;;;;;4.17;2.40;;;4.50;99.90;;;;;;5073595;28;20225;-61
2021/12/17 13:02:52;;;;;;;4.20;2.70;;;4.50;99.90;;;;;;5073238;28;20630;-61
2021/12/17 13:05:19;;;;;;;5.37;2.73;;;4.50;99.90;;;;;;5073396;28;20215;-61
2021/12/17 13:07:48;;;;;;;4.93;2.90;;;4.40;99.90;;;;;;5073063;28;20209;-61
2021/12/17 13:10:18;;;;;;;7.00;3.30;;;4.40;99.90;;;;;;5073442;28;20206;-64
2021/12/17 13:12:58;;;;;;;6.40;2.80;;;4.40;99.90;;;;;;5073062;28;20211;-61
2021/12/17 13:15:40;;;;;;;4.70;2.90;;;4.40;99.90;;;;;;5073079;28;20193;-61
2021/12/17 13:21:03;;;;;;;4.60;2.40;;;4.30;99.90;;;;;;5073076;28;20216;-61
2021/12/17 13:23:31;;;;;;;4.77;2.40;;;4.30;99.90;;;;;;5073197;28;20287;-62
2021/12/17 13:26:04;;;;;;;4.70;2.60;;;4.30;99.90;;;;;;5073049;28;20217;-60
2021/12/17 13:28:46;;;;;;;4.97;2.63;;;4.30;99.90;;;;;;5072971;28;20215;-61
2021/12/17 13:31:35;;;;;;;4.07;2.37;;;4.20;99.90;;;;;;5073386;28;20185;-62
2021/12/17 13:34:05;;;;;;;5.43;2.53;;;4.20;99.90;;;;;;5072047;28;20201;-61
2021/12/17 13:36:33;;;;;;;5.67;2.47;;;4.20;99.90;;;;;;5072997;28;20199;-60
2021/12/17 13:39:00;;;;;;;9.60;2.40;;;4.20;99.90;;;;;;5073080;28;20582;-61
2021/12/17 13:41:38;;;;;;;3.13;2.13;;;4.10;99.90;;;;;;5072346;28;20220;-59
2021/12/17 13:44:06;;;;;;;4.67;2.50;;;4.20;99.90;;;;;;5072619;28;20671;-63
2021/12/17 13:46:37;;;;;;;5.23;2.50;;;4.10;99.90;;;;;;5072512;28;20292;-62
2021/12/17 13:49:04;;;;;;;5.77;2.43;;;4.10;99.90;;;;;;5072079;28;20672;-62
2021/12/17 13:51:31;;;;;;;6.10;2.50;;;4.10;99.90;;;;;;5071872;28;20204;-62
2021/12/17 13:53:58;;;;;;;4.60;2.47;;;4.10;99.90;;;;;;5072120;28;20543;-61
2021/12/17 13:56:25;;;;;;;13.97;3.40;;;4.10;99.90;;;;;;5072268;28;20205;-61
2021/12/17 13:59:00;;;;;;;9.60;2.80;;;4.00;99.90;;;;;;5071727;28;20233;-62
2021/12/17 14:01:27;;;;;;;5.40;2.83;;;4.00;99.90;;;;;;5072281;28;20232;-61
2021/12/17 14:03:55;;;;;;;6.60;2.50;;;4.00;99.90;;;;;;5071964;28;20208;-61
2021/12/17 14:06:25;;;;;;;3.53;2.30;;;4.00;99.90;;;;;;5070452;28;20219;-59
2021/12/17 14:08:52;;;;;;;5.97;2.47;;;4.00;99.90;;;;;;5067998;28;20197;-63
2021/12/17 14:11:20;;;;;;;5.43;2.50;;;4.00;99.90;;;;;;5071425;28;20196;-62
2021/12/17 14:13:48;;;;;;;7.03;2.60;;;4.00;99.90;;;;;;5071174;28;20272;-61
2021/12/17 14:16:27;;;;;;;3.60;2.27;;;4.00;99.90;;;;;;5070661;28;20303;-61
2021/12/17 14:18:58;;;;;;;5.83;2.47;;;4.00;99.90;;;;;;5071633;28;20197;-61
2021/12/17 14:21:28;;;;;;;2.67;2.10;;;4.00;99.90;;;;;;5068173;28;20223;-64
2021/12/17 14:23:55;;;;;;;3.73;2.13;;;4.00;99.90;;;;;;5067811;28;20212;-62
2021/12/17 14:26:27;;;;;;;3.27;2.23;;;3.90;99.90;;;;;;5070640;28;20224;-63
2021/12/17 14:28:54;;;;;;;4.80;2.20;;;3.90;99.90;;;;;;5071637;28;20243;-63
2021/12/17 14:31:25;;;;;;;5.03;2.87;;;3.90;99.90;;;;;;5072114;28;20306;-62
2021/12/17 14:33:53;;;;;;;5.13;3.13;;;3.80;99.90;;;;;;5071947;28;20641;-61
2021/12/17 14:36:28;;;;;;;5.40;2.97;;;3.90;99.90;;;;;;5071786;28;20248;-61
2021/12/17 14:39:04;;;;;;;5.63;3.17;;;3.80;99.90;;;;;;5071562;28;20188;-61
2021/12/17 14:41:39;;;;;;;6.37;3.33;;;3.80;99.90;;;;;;5071427;28;20232;-61
2021/12/17 14:44:20;;;;;;;5.90;3.57;;;3.80;99.90;;;;;;5071437;28;20192;-63
2021/12/17 14:46:51;;;;;;;8.23;3.87;;;3.80;99.90;;;;;;5071629;28;20656;-62
2021/12/17 14:57:13;;;;;;;8.30;4.50;;;3.80;99.90;;;;;;5071779;28;20201;-62
2021/12/17 15:00:48;;;;;;;5.60;3.07;;;3.50;99.90;;;;;;5071206;28;20259;-61
2021/12/17 15:03:24;;;;;;;4.77;3.17;;;3.50;99.90;;;;;;5071732;28;20318;-61
2021/12/17 15:05:52;;;;;;;5.33;3.03;;;3.50;99.90;;;;;;5071339;28;20218;-63
2021/12/17 15:08:20;;;;;;;4.63;2.60;;;3.40;99.90;;;;;;5071512;28;20210;-60
2021/12/17 15:10:47;;;;;;;4.10;2.70;;;3.40;99.90;;;;;;5071493;28;20208;-60
2021/12/17 15:13:15;;;;;;;3.67;2.43;;;3.40;99.90;;;;;;5071738;28;20372;-62
2021/12/17 15:15:42;;;;;;;4.50;2.73;;;3.40;99.90;;;;;;5071114;28;20208;-61
2021/12/17 15:18:14;;;;;;;4.43;2.77;;;3.40;99.90;;;;;;5071305;28;20212;-62
2021/12/17 15:20:42;;;;;;;5.47;2.87;;;3.40;99.90;;;;;;5086466;28;20246;-62
2021/12/17 15:23:09;;;;;;;6.43;3.50;;;3.40;99.90;;;;;;5084101;28;20206;-61
2021/12/17 15:25:39;;;;;;;5.80;3.40;;;3.40;99.90;;;;;;5074497;28;20208;-60
2021/12/17 15:28:07;;;;;;;7.13;3.87;;;3.40;99.90;;;;;;5075131;28;20205;-61
2021/12/17 15:30:36;;;;;;;5.47;3.53;;;3.30;99.90;;;;;;5073678;28;20197;-60
2021/12/17 15:33:03;;;;;;;6.57;3.60;;;3.30;99.90;;;;;;5054165;28;20220;-61
2021/12/17 15:35:30;;;;;;;6.97;4.00;;;3.20;99.90;;;;;;5053193;28;20209;-63
2021/12/17 15:37:58;;;;;;;6.23;4.10;;;3.20;99.90;;;;;;5054215;28;20215;-63
2021/12/17 15:40:25;;;;;;;9.20;4.17;;;3.20;99.90;;;;;;5053890;28;20221;-62
2021/12/17 15:43:01;;;;;;;7.23;4.50;;;3.10;99.90;;;;;;5054116;28;20209;-62
2021/12/17 15:45:29;;;;;;;6.73;4.13;;;3.10;99.90;;;;;;5066690;28;20197;-62